Time;durP1;ratioP1;P1;durP2;ratioP2;P2;SDS_P1;SDS_P2;PMS_P1;PMS_P2;Temp;Humidity;BMP_temperature;BMP_pressure;BME280_temperature;BME280_humidity;BME280_pressure;Samples;Min_cycle;Max_cycle;Signal;HPM_P1;HPM_P2
2024/01/07 00:01:01;;;;;;;30.23;15.90;;;4.10;99.90;;;;;;5051424;28;20262;-74
2024/01/07 00:03:27;;;;;;;33.60;15.27;;;4.10;99.90;;;;;;5051129;28;20186;-74
2024/01/07 00:05:53;;;;;;;37.27;15.83;;;4.10;99.90;;;;;;5051534;28;20409;-75
2024/01/07 00:08:18;;;;;;;33.40;16.30;;;4.10;99.90;;;;;;5051493;28;20228;-75
2024/01/07 00:10:44;;;;;;;35.13;17.33;;;4.10;99.90;;;;;;5051557;28;20174;-74
2024/01/07 00:13:09;;;;;;;39.60;18.60;;;4.10;99.90;;;;;;5051280;28;20194;-74
2024/01/07 00:15:35;;;;;;;28.70;15.70;;;4.10;99.90;;;;;;5051372;28;20257;-73
2024/01/07 00:18:00;;;;;;;37.47;15.83;;;4.10;99.90;;;;;;5050159;28;20175;-74
2024/01/07 00:20:26;;;;;;;26.40;14.10;;;4.10;99.90;;;;;;5051510;28;20167;-73
2024/01/07 00:22:51;;;;;;;33.63;16.70;;;4.10;99.90;;;;;;5050839;28;20194;-74
2024/01/07 00:25:18;;;;;;;30.67;16.33;;;4.10;99.90;;;;;;5051161;28;20171;-74
2024/01/07 00:27:43;;;;;;;33.80;16.27;;;4.10;99.90;;;;;;5051688;28;20622;-74
2024/01/07 00:30:09;;;;;;;29.50;15.77;;;4.10;99.90;;;;;;5051625;28;20406;-75
2024/01/07 00:32:35;;;;;;;37.17;16.90;;;4.10;99.90;;;;;;5050968;28;20179;-75
2024/01/07 00:35:00;;;;;;;36.07;15.77;;;4.10;99.90;;;;;;5051651;28;20424;-75
2024/01/07 00:37:26;;;;;;;39.20;17.77;;;4.10;99.90;;;;;;5051540;28;20182;-76
2024/01/07 00:39:51;;;;;;;36.37;14.97;;;4.10;99.90;;;;;;5051830;28;20548;-76
2024/01/07 00:42:17;;;;;;;34.00;17.17;;;4.20;99.90;;;;;;5051661;28;20194;-76
2024/01/07 00:44:42;;;;;;;38.77;16.60;;;4.20;99.90;;;;;;5051702;28;20681;-76
2024/01/07 00:47:08;;;;;;;34.80;14.97;;;4.10;99.90;;;;;;5051836;28;20665;-77
2024/01/07 00:49:33;;;;;;;34.70;15.63;;;4.10;99.90;;;;;;5052401;28;20174;-76
2024/01/07 00:51:59;;;;;;;37.90;17.70;;;4.10;99.90;;;;;;5049638;28;20191;-76
2024/01/07 00:54:24;;;;;;;27.17;15.87;;;4.10;99.90;;;;;;5050934;28;20225;-77
2024/01/07 00:56:50;;;;;;;34.60;17.10;;;4.10;99.90;;;;;;5054817;28;20805;-77
2024/01/07 00:59:16;;;;;;;33.47;16.43;;;4.20;99.90;;;;;;5054890;28;20595;-77
2024/01/07 01:01:41;;;;;;;36.93;15.97;;;4.10;99.90;;;;;;5054647;28;20195;-76
2024/01/07 01:04:07;;;;;;;35.17;17.90;;;4.20;99.90;;;;;;5054462;28;20193;-76
2024/01/07 01:06:32;;;;;;;26.00;12.90;;;4.20;99.90;;;;;;5054688;28;20198;-76
2024/01/07 01:08:58;;;;;;;30.53;15.13;;;4.20;99.90;;;;;;5055020;28;20521;-76
2024/01/07 01:11:23;;;;;;;29.90;15.00;;;4.10;99.90;;;;;;5054871;28;20591;-76
2024/01/07 01:13:49;;;;;;;28.60;14.83;;;4.10;99.90;;;;;;5054322;28;20668;-74
2024/01/07 01:16:14;;;;;;;35.60;14.37;;;4.20;99.90;;;;;;5054154;28;20544;-74
2024/01/07 01:18:40;;;;;;;30.03;13.73;;;4.20;99.90;;;;;;5054090;28;20185;-73
2024/01/07 01:21:05;;;;;;;29.20;16.33;;;4.20;99.90;;;;;;5054168;28;20213;-74
2024/01/07 01:23:31;;;;;;;29.20;15.10;;;4.20;99.90;;;;;;5052680;28;20191;-73
2024/01/07 01:25:56;;;;;;;29.77;15.17;;;4.20;99.90;;;;;;5052654;28;20514;-74
2024/01/07 01:28:22;;;;;;;33.13;15.87;;;4.20;99.90;;;;;;5054094;28;20167;-73
2024/01/07 01:30:47;;;;;;;27.53;14.30;;;4.20;99.90;;;;;;5054367;28;20163;-76
2024/01/07 01:33:13;;;;;;;31.57;13.67;;;4.20;99.90;;;;;;5054853;28;20226;-77
2024/01/07 01:35:38;;;;;;;31.53;15.30;;;4.20;99.90;;;;;;5055076;28;20178;-77
2024/01/07 01:38:04;;;;;;;26.20;13.27;;;4.30;99.90;;;;;;5053902;28;20182;-77
2024/01/07 01:40:29;;;;;;;31.07;13.73;;;4.30;99.90;;;;;;5055668;28;20182;-77
2024/01/07 01:42:55;;;;;;;24.93;13.50;;;4.30;99.90;;;;;;5054295;28;20213;-74
2024/01/07 01:45:20;;;;;;;28.70;12.40;;;4.30;99.90;;;;;;5054497;28;20159;-77
2024/01/07 01:47:47;;;;;;;21.93;13.70;;;4.30;99.90;;;;;;5055336;28;20220;-76
2024/01/07 01:50:14;;;;;;;26.03;12.37;;;4.30;99.90;;;;;;5055055;28;20163;-75
2024/01/07 01:52:40;;;;;;;23.37;11.03;;;4.30;99.90;;;;;;5046739;28;20441;-74
2024/01/07 01:55:06;;;;;;;27.47;12.30;;;4.30;99.90;;;;;;5053963;28;20923;-77
2024/01/07 01:57:37;;;;;;;25.70;12.43;;;4.30;99.90;;;;;;5054800;28;20420;-77
2024/01/07 02:00:04;;;;;;;25.40;12.17;;;4.30;99.90;;;;;;5054346;28;20451;-77
2024/01/07 02:02:31;;;;;;;22.20;10.07;;;4.30;99.90;;;;;;5051578;28;21064;-75
2024/01/07 02:04:57;;;;;;;18.63;10.03;;;4.30;99.90;;;;;;5053196;28;20500;-75
2024/01/07 02:07:24;;;;;;;22.43;11.17;;;4.30;99.90;;;;;;5052722;28;20412;-77
2024/01/07 02:09:50;;;;;;;18.40;9.97;;;4.30;99.90;;;;;;5054634;28;20398;-75
2024/01/07 02:12:15;;;;;;;20.80;10.07;;;4.30;99.90;;;;;;5053360;28;20408;-75
2024/01/07 02:14:41;;;;;;;20.90;10.90;;;4.30;99.90;;;;;;5053155;28;20190;-75
2024/01/07 02:17:07;;;;;;;22.10;10.47;;;4.30;99.90;;;;;;5053254;28;20163;-74
2024/01/07 02:19:32;;;;;;;18.87;10.27;;;4.40;99.90;;;;;;5053504;28;20261;-74
2024/01/07 02:21:58;;;;;;;26.03;9.73;;;4.30;99.90;;;;;;5051783;28;20575;-73
2024/01/07 02:24:24;;;;;;;14.67;9.10;;;4.30;99.90;;;;;;5052833;28;20183;-77
2024/01/07 02:26:50;;;;;;;12.17;7.80;;;4.30;99.90;;;;;;5053136;28;20167;-73
2024/01/07 02:29:15;;;;;;;13.57;7.77;;;4.20;99.90;;;;;;5052957;28;20412;-77
2024/01/07 02:31:41;;;;;;;21.30;9.63;;;4.20;99.90;;;;;;5053080;28;20178;-76
2024/01/07 02:34:08;;;;;;;16.20;9.20;;;4.20;99.90;;;;;;5052971;28;20183;-76
2024/01/07 02:36:34;;;;;;;14.03;8.50;;;4.20;99.90;;;;;;5052277;28;20167;-74
2024/01/07 02:38:59;;;;;;;12.67;9.47;;;4.20;99.90;;;;;;5052619;28;20416;-74
2024/01/07 02:41:26;;;;;;;13.63;8.47;;;4.20;99.90;;;;;;5052600;28;20285;-74
2024/01/07 02:43:52;;;;;;;12.73;8.63;;;4.20;99.90;;;;;;5051226;28;20237;-74
2024/01/07 02:46:17;;;;;;;18.90;10.43;;;4.20;99.90;;;;;;5052693;28;20441;-76
2024/01/07 02:48:43;;;;;;;16.23;9.00;;;4.20;99.90;;;;;;5052589;28;20169;-74
2024/01/07 02:51:08;;;;;;;19.47;10.70;;;4.20;99.90;;;;;;5051712;28;20161;-74
2024/01/07 02:53:34;;;;;;;23.00;11.43;;;4.20;99.90;;;;;;5045744;28;20211;-74
2024/01/07 02:56:00;;;;;;;18.37;10.13;;;4.10;99.90;;;;;;5052247;28;20175;-74
2024/01/07 02:58:25;;;;;;;17.57;9.80;;;4.10;99.90;;;;;;5052387;28;20225;-76
2024/01/07 03:00:51;;;;;;;22.43;11.40;;;4.10;99.90;;;;;;5052542;28;20163;-75
2024/01/07 03:03:17;;;;;;;21.37;10.37;;;4.10;99.90;;;;;;5052289;28;20191;-76
2024/01/07 03:05:42;;;;;;;24.40;9.27;;;4.20;99.90;;;;;;5052501;28;20249;-74
2024/01/07 03:08:08;;;;;;;16.30;9.10;;;4.30;99.90;;;;;;5052269;28;20541;-77
2024/01/07 03:10:33;;;;;;;20.83;11.33;;;4.30;99.90;;;;;;5052277;28;20159;-76
2024/01/07 03:13:00;;;;;;;19.00;10.63;;;4.30;99.90;;;;;;5051585;28;20190;-75
2024/01/07 03:15:26;;;;;;;16.77;8.97;;;4.30;99.90;;;;;;5052054;28;20173;-72
2024/01/07 03:17:51;;;;;;;19.23;10.90;;;4.20;99.90;;;;;;5052323;28;20409;-74
2024/01/07 03:20:17;;;;;;;14.50;9.00;;;4.20;99.90;;;;;;5052056;28;20175;-73
2024/01/07 03:22:42;;;;;;;18.83;10.50;;;4.20;99.90;;;;;;5051950;28;20553;-76
2024/01/07 03:25:08;;;;;;;18.37;9.57;;;4.20;99.90;;;;;;5051224;28;20680;-75
2024/01/07 03:27:34;;;;;;;18.67;9.97;;;4.20;99.90;;;;;;5052144;28;20238;-74
2024/01/07 03:29:59;;;;;;;13.40;9.67;;;4.20;99.90;;;;;;5051888;28;20167;-73
2024/01/07 03:32:25;;;;;;;19.17;10.33;;;4.20;99.90;;;;;;5050584;28;20181;-73
2024/01/07 03:34:50;;;;;;;16.57;10.90;;;4.20;99.90;;;;;;5051544;28;20229;-73
2024/01/07 03:37:17;;;;;;;17.30;11.20;;;4.20;99.90;;;;;;5051891;28;20544;-75
2024/01/07 03:39:43;;;;;;;16.60;9.80;;;4.20;99.90;;;;;;5051952;28;20173;-75
2024/01/07 03:42:11;;;;;;;20.50;10.37;;;4.20;99.90;;;;;;5052056;28;20858;-76
2024/01/07 03:44:38;;;;;;;17.97;10.43;;;4.20;99.90;;;;;;5052230;28;20413;-75
2024/01/07 03:47:04;;;;;;;13.40;9.30;;;4.20;99.90;;;;;;5052547;28;20404;-76
2024/01/07 03:49:29;;;;;;;18.60;10.40;;;4.20;99.90;;;;;;5052326;28;20405;-75
2024/01/07 03:51:55;;;;;;;18.63;10.27;;;4.10;99.90;;;;;;5048396;28;20806;-76
2024/01/07 03:54:20;;;;;;;14.90;8.83;;;4.10;99.90;;;;;;5049228;28;20190;-75
2024/01/07 03:56:46;;;;;;;18.50;9.90;;;4.10;99.90;;;;;;5051898;28;20178;-74
2024/01/07 03:59:11;;;;;;;14.50;10.17;;;4.10;99.90;;;;;;5050375;28;20167;-73
2024/01/07 04:01:37;;;;;;;15.97;9.90;;;4.00;99.90;;;;;;5051563;28;20240;-73
2024/01/07 04:04:03;;;;;;;18.17;8.93;;;4.00;99.90;;;;;;5051349;28;20186;-75
2024/01/07 04:06:28;;;;;;;31.60;20.33;;;4.00;99.90;;;;;;5050336;28;20173;-75
2024/01/07 04:08:54;;;;;;;20.60;11.40;;;4.00;99.90;;;;;;5051629;28;20199;-75
2024/01/07 04:11:20;;;;;;;17.53;10.07;;;4.00;99.90;;;;;;5051205;28;20463;-73
2024/01/07 04:13:45;;;;;;;15.27;9.87;;;4.00;99.90;;;;;;5051298;28;20190;-76
2024/01/07 04:16:20;;;;;;;24.00;11.83;;;4.00;99.90;;;;;;5052145;28;20171;-74
2024/01/07 04:18:47;;;;;;;17.13;9.80;;;4.00;99.90;;;;;;5052282;28;20561;-75
2024/01/07 04:21:13;;;;;;;27.50;10.97;;;3.90;99.90;;;;;;5051497;28;20791;-74
2024/01/07 04:23:40;;;;;;;20.70;12.07;;;3.90;99.90;;;;;;5049863;28;20438;-75
2024/01/07 04:26:06;;;;;;;20.30;10.03;;;3.80;99.90;;;;;;5054439;28;20895;-72
2024/01/07 04:28:32;;;;;;;17.07;9.10;;;3.80;99.90;;;;;;5055149;28;20401;-73
2024/01/07 04:30:57;;;;;;;19.13;11.23;;;3.80;99.90;;;;;;5055163;28;20397;-73
2024/01/07 04:33:23;;;;;;;18.40;10.27;;;3.80;99.90;;;;;;5054825;28;20213;-73
2024/01/07 04:35:48;;;;;;;24.83;11.70;;;3.80;99.90;;;;;;5054988;28;20638;-73
2024/01/07 04:38:14;;;;;;;18.10;11.70;;;3.80;99.90;;;;;;5054946;28;20175;-76
2024/01/07 04:40:39;;;;;;;17.93;10.90;;;3.70;99.90;;;;;;5053775;28;20179;-75
2024/01/07 04:43:05;;;;;;;24.00;13.23;;;3.70;99.90;;;;;;5054671;28;20210;-76
2024/01/07 04:45:30;;;;;;;18.00;11.13;;;3.80;99.90;;;;;;5055483;28;20163;-75
2024/01/07 04:47:56;;;;;;;20.30;12.60;;;3.70;99.90;;;;;;5054486;28;20544;-76
2024/01/07 04:50:22;;;;;;;59.83;28.13;;;3.70;99.90;;;;;;5053602;28;20175;-73
2024/01/07 04:52:48;;;;;;;21.17;11.60;;;3.70;99.90;;;;;;5045923;28;20187;-72
2024/01/07 04:55:13;;;;;;;16.37;10.40;;;3.70;99.90;;;;;;5054477;28;20933;-74
2024/01/07 04:57:39;;;;;;;21.30;10.47;;;3.70;99.90;;;;;;5054454;28;20181;-75
2024/01/07 05:00:06;;;;;;;16.20;8.73;;;3.70;99.90;;;;;;5054648;28;20658;-73
2024/01/07 05:02:31;;;;;;;18.60;9.03;;;3.70;99.90;;;;;;5054456;28;20203;-75
2024/01/07 05:04:57;;;;;;;15.93;8.73;;;3.70;99.90;;;;;;5055354;28;20960;-76
2024/01/07 05:07:22;;;;;;;14.83;9.63;;;3.70;99.90;;;;;;5055611;28;20533;-75
2024/01/07 05:09:48;;;;;;;16.73;10.50;;;3.70;99.90;;;;;;5054100;28;20183;-76
2024/01/07 05:12:13;;;;;;;16.03;9.20;;;3.80;99.90;;;;;;5055151;28;20182;-74
2024/01/07 05:14:40;;;;;;;15.47;8.67;;;3.70;99.90;;;;;;5054816;28;20198;-75
2024/01/07 05:17:06;;;;;;;15.00;9.40;;;3.70;99.90;;;;;;5055235;28;20171;-74
2024/01/07 05:19:31;;;;;;;16.37;10.07;;;3.70;99.90;;;;;;5052880;28;20424;-74
2024/01/07 05:21:58;;;;;;;19.23;10.00;;;3.70;99.90;;;;;;5055372;28;20453;-75
2024/01/07 05:24:23;;;;;;;14.90;9.87;;;3.70;99.90;;;;;;5054124;28;20273;-75
2024/01/07 05:26:49;;;;;;;16.83;9.40;;;3.70;99.90;;;;;;5054097;28;20616;-73
2024/01/07 05:29:14;;;;;;;24.03;12.43;;;3.70;99.90;;;;;;5054074;28;20232;-73
2024/01/07 05:31:40;;;;;;;23.67;11.87;;;3.70;99.90;;;;;;5053973;28;20178;-73
2024/01/07 05:34:06;;;;;;;17.50;11.57;;;3.70;99.90;;;;;;5053758;28;20190;-74
2024/01/07 05:36:31;;;;;;;21.27;11.47;;;3.70;99.90;;;;;;5053754;28;20174;-73
2024/01/07 05:38:57;;;;;;;21.03;11.13;;;3.70;99.90;;;;;;5053729;28;20266;-74
2024/01/07 05:41:22;;;;;;;22.07;11.97;;;3.70;99.90;;;;;;5053717;28;20262;-74
2024/01/07 05:43:48;;;;;;;25.77;11.83;;;3.70;99.90;;;;;;5053646;28;20654;-76
2024/01/07 05:46:14;;;;;;;20.47;11.33;;;3.60;99.90;;;;;;5053745;28;20216;-74
2024/01/07 05:48:46;;;;;;;20.53;11.33;;;3.70;99.90;;;;;;5053226;28;20170;-74
2024/01/07 05:51:13;;;;;;;25.00;12.47;;;3.60;99.90;;;;;;5053617;28;20920;-75
2024/01/07 05:53:39;;;;;;;22.57;12.77;;;3.60;99.90;;;;;;5044325;28;20543;-75
2024/01/07 05:56:05;;;;;;;20.37;11.60;;;3.60;99.90;;;;;;5053250;28;20420;-74
2024/01/07 05:58:30;;;;;;;21.67;12.37;;;3.50;99.90;;;;;;5053563;28;20405;-74
2024/01/07 06:00:56;;;;;;;19.20;13.77;;;3.60;99.90;;;;;;5052293;28;20205;-75
2024/01/07 06:03:22;;;;;;;20.97;11.50;;;3.40;99.90;;;;;;5053169;28;20202;-74
2024/01/07 06:05:47;;;;;;;16.57;10.17;;;3.50;99.90;;;;;;5053378;28;20171;-74
2024/01/07 06:08:13;;;;;;;18.87;10.93;;;3.50;99.90;;;;;;5053401;28;20576;-77
2024/01/07 06:10:39;;;;;;;24.27;13.37;;;3.50;99.90;;;;;;5053398;28;20171;-75
2024/01/07 06:13:04;;;;;;;20.40;11.43;;;3.50;99.90;;;;;;5053190;28;20203;-76
2024/01/07 06:15:30;;;;;;;21.57;14.47;;;3.50;99.90;;;;;;5053292;28;20459;-77
2024/01/07 06:17:55;;;;;;;22.63;12.90;;;3.50;99.90;;;;;;5053364;28;20590;-76
2024/01/07 06:20:21;;;;;;;24.17;13.50;;;3.50;99.90;;;;;;5051879;28;20265;-76
2024/01/07 06:22:47;;;;;;;18.00;12.10;;;3.50;99.90;;;;;;5051623;28;20222;-76
2024/01/07 06:25:12;;;;;;;15.30;11.37;;;3.50;99.90;;;;;;5052964;28;20167;-76
2024/01/07 06:27:39;;;;;;;17.23;11.53;;;3.40;99.90;;;;;;5053082;28;20155;-76
2024/01/07 06:30:05;;;;;;;17.80;12.23;;;3.40;99.90;;;;;;5052988;28;20159;-74
2024/01/07 06:32:32;;;;;;;16.73;10.77;;;3.40;99.90;;;;;;5051650;28;20463;-75
2024/01/07 06:34:58;;;;;;;17.93;11.57;;;3.40;99.90;;;;;;5052561;28;20496;-74
2024/01/07 06:37:23;;;;;;;21.30;12.97;;;3.30;99.90;;;;;;5052762;28;20414;-74
2024/01/07 06:39:49;;;;;;;17.17;12.60;;;3.30;99.90;;;;;;5053158;28;20397;-75
2024/01/07 06:42:14;;;;;;;19.47;12.37;;;3.30;99.90;;;;;;5045033;28;20203;-76
2024/01/07 06:44:40;;;;;;;20.00;12.63;;;3.20;99.90;;;;;;5052530;28;20195;-76
2024/01/07 06:47:06;;;;;;;17.23;12.20;;;3.20;99.90;;;;;;5051212;28;20259;-76
2024/01/07 06:49:31;;;;;;;18.17;10.40;;;3.20;99.90;;;;;;5052907;28;20453;-77
2024/01/07 06:51:57;;;;;;;22.73;13.53;;;3.20;99.90;;;;;;5049589;28;20202;-75
2024/01/07 06:54:22;;;;;;;24.20;14.20;;;3.20;99.90;;;;;;5042977;28;20196;-77
2024/01/07 06:56:48;;;;;;;20.03;13.33;;;3.20;99.90;;;;;;5044292;28;20179;-76
2024/01/07 06:59:14;;;;;;;23.83;12.87;;;3.20;99.90;;;;;;5052923;28;20175;-74
2024/01/07 07:01:40;;;;;;;21.20;12.53;;;3.30;99.90;;;;;;5052074;28;20198;-75
2024/01/07 07:04:05;;;;;;;24.37;15.00;;;3.20;99.90;;;;;;5051758;28;20804;-76
2024/01/07 07:06:31;;;;;;;19.10;12.90;;;3.20;99.90;;;;;;5052212;28;20160;-74
2024/01/07 07:08:56;;;;;;;23.23;13.33;;;3.20;99.90;;;;;;5053109;28;20278;-76
2024/01/07 07:11:22;;;;;;;22.30;12.43;;;3.10;99.90;;;;;;5052986;28;20674;-76
2024/01/07 07:13:47;;;;;;;20.17;12.43;;;3.10;99.90;;;;;;5052291;28;20197;-71
2024/01/07 07:16:13;;;;;;;20.27;12.50;;;3.10;99.90;;;;;;5051944;28;20369;-72
2024/01/07 07:18:38;;;;;;;18.13;12.40;;;3.20;99.90;;;;;;5052133;28;20162;-71
2024/01/07 07:21:04;;;;;;;25.97;15.63;;;3.20;99.90;;;;;;5052000;28;20257;-71
2024/01/07 07:23:30;;;;;;;21.87;12.30;;;3.20;99.90;;;;;;5051413;28;20194;-70
2024/01/07 07:25:56;;;;;;;18.80;11.23;;;3.20;99.90;;;;;;5051893;28;20166;-72
2024/01/07 07:28:21;;;;;;;17.90;11.60;;;3.20;99.90;;;;;;5051947;28;20455;-72
2024/01/07 07:30:46;;;;;;;19.93;13.00;;;3.20;99.90;;;;;;5052046;28;20584;-71
2024/01/07 07:33:13;;;;;;;19.37;11.00;;;3.20;99.90;;;;;;5051544;28;20213;-72
2024/01/07 07:35:40;;;;;;;16.83;11.00;;;3.20;99.90;;;;;;5051752;28;20175;-71
2024/01/07 07:38:06;;;;;;;19.00;13.13;;;3.10;99.90;;;;;;5051936;28;20517;-70
2024/01/07 07:40:32;;;;;;;22.07;12.13;;;3.10;99.90;;;;;;5051861;28;20847;-71
2024/01/07 07:42:57;;;;;;;18.80;12.50;;;3.20;99.90;;;;;;5049381;28;20285;-72
2024/01/07 07:45:23;;;;;;;28.47;17.60;;;3.20;99.90;;;;;;5044449;28;20175;-71
2024/01/07 07:47:48;;;;;;;23.57;13.43;;;3.20;99.90;;;;;;5050388;28;20182;-71
2024/01/07 07:50:14;;;;;;;18.70;11.20;;;3.30;99.90;;;;;;5051657;28;20174;-70
2024/01/07 07:52:43;;;;;;;13.70;9.67;;;3.30;99.90;;;;;;5044217;28;20278;-71
2024/01/07 07:55:09;;;;;;;16.57;11.07;;;3.20;99.90;;;;;;5045148;28;20171;-71
2024/01/07 07:57:35;;;;;;;18.83;11.33;;;3.30;99.90;;;;;;5043550;28;20421;-72
2024/01/07 08:00:00;;;;;;;16.40;10.20;;;3.20;99.90;;;;;;5049369;28;20416;-71
2024/01/07 08:02:26;;;;;;;21.03;11.63;;;3.30;99.90;;;;;;5055221;28;20272;-72
2024/01/07 08:04:52;;;;;;;16.63;11.50;;;3.20;99.90;;;;;;5054772;28;20194;-72
2024/01/07 08:07:17;;;;;;;19.80;11.27;;;3.20;99.90;;;;;;5055243;28;20626;-71
2024/01/07 08:09:43;;;;;;;17.87;11.37;;;3.10;99.90;;;;;;5047396;28;20175;-71
2024/01/07 08:12:09;;;;;;;23.40;11.80;;;3.10;99.90;;;;;;5053737;28;20178;-71
2024/01/07 08:14:35;;;;;;;12.90;9.73;;;3.10;99.90;;;;;;5054621;28;20218;-71
2024/01/07 08:17:01;;;;;;;16.43;10.33;;;3.20;99.90;;;;;;5055399;28;20393;-71
2024/01/07 08:19:26;;;;;;;16.60;10.20;;;3.20;99.90;;;;;;5055334;28;20513;-71
2024/01/07 08:21:52;;;;;;;21.50;12.83;;;3.20;99.90;;;;;;5053901;28;20198;-72
2024/01/07 08:24:18;;;;;;;18.37;10.90;;;3.30;99.90;;;;;;5055022;28;20186;-72
2024/01/07 08:26:44;;;;;;;16.77;10.97;;;3.30;99.90;;;;;;5055843;28;20425;-72
2024/01/07 08:29:09;;;;;;;14.83;10.73;;;3.10;99.90;;;;;;5057174;28;20397;-73
2024/01/07 08:31:35;;;;;;;17.07;10.20;;;3.20;99.90;;;;;;5054645;28;20174;-72
2024/01/07 08:34:00;;;;;;;16.13;10.47;;;3.10;99.90;;;;;;5050455;28;20228;-72
2024/01/07 08:36:26;;;;;;;16.80;10.53;;;3.10;99.90;;;;;;5055814;28;20163;-71
2024/01/07 08:38:52;;;;;;;14.77;9.87;;;3.10;99.90;;;;;;5055252;28;20182;-71
2024/01/07 08:41:18;;;;;;;18.83;11.37;;;3.20;99.90;;;;;;5054851;28;20163;-71
2024/01/07 08:43:44;;;;;;;19.20;12.17;;;3.10;99.90;;;;;;5044910;28;20617;-71
2024/01/07 08:46:11;;;;;;;22.80;11.73;;;3.20;99.90;;;;;;5049574;28;20405;-71
2024/01/07 08:48:36;;;;;;;15.60;11.03;;;3.20;99.90;;;;;;5054668;28;20401;-72
2024/01/07 08:51:03;;;;;;;20.13;12.03;;;3.30;99.90;;;;;;5054714;28;20771;-71
2024/01/07 08:53:28;;;;;;;20.40;11.40;;;3.40;99.90;;;;;;5048312;28;20210;-73
2024/01/07 08:55:54;;;;;;;30.47;13.83;;;3.30;99.90;;;;;;5054874;28;20833;-73
2024/01/07 08:58:20;;;;;;;30.80;17.27;;;3.40;99.90;;;;;;5053947;28;20167;-72
2024/01/07 09:00:45;;;;;;;17.20;12.23;;;3.40;99.90;;;;;;5053373;28;20233;-72
2024/01/07 09:03:11;;;;;;;18.93;11.83;;;3.40;99.90;;;;;;5053064;28;20214;-71
2024/01/07 09:05:37;;;;;;;22.57;13.80;;;3.40;99.90;;;;;;5053134;28;20171;-71
2024/01/07 09:08:02;;;;;;;29.80;12.37;;;3.30;99.90;;;;;;5053219;28;20626;-71
2024/01/07 09:10:28;;;;;;;19.63;12.20;;;3.20;99.90;;;;;;5052732;28;20482;-71
2024/01/07 09:12:53;;;;;;;17.90;12.00;;;3.20;99.90;;;;;;5052505;28;20202;-71
2024/01/07 09:15:20;;;;;;;26.17;11.17;;;3.20;99.90;;;;;;5053005;28;20630;-71
2024/01/07 09:17:46;;;;;;;15.03;9.80;;;3.10;99.90;;;;;;5051719;28;20588;-72
2024/01/07 09:20:12;;;;;;;19.80;10.53;;;3.10;99.90;;;;;;5043702;28;20425;-72
2024/01/07 09:22:37;;;;;;;31.80;16.60;;;3.00;99.90;;;;;;5052912;28;21113;-72
2024/01/07 09:25:04;;;;;;;14.30;10.67;;;3.00;99.90;;;;;;5068951;28;20416;-71
2024/01/07 09:27:30;;;;;;;15.63;10.83;;;3.00;99.90;;;;;;5055328;28;20178;-72
2024/01/07 09:29:55;;;;;;;17.03;10.40;;;2.90;99.90;;;;;;5067381;28;20514;-72
2024/01/07 09:32:21;;;;;;;15.60;10.00;;;2.90;99.90;;;;;;5072873;28;20484;-71
2024/01/07 09:34:46;;;;;;;18.00;11.57;;;2.90;99.90;;;;;;5072477;28;20221;-70
2024/01/07 09:37:12;;;;;;;17.10;11.10;;;2.90;99.90;;;;;;5072925;28;20171;-70
2024/01/07 09:39:41;;;;;;;18.43;11.73;;;3.00;99.90;;;;;;5072619;28;20174;-72
2024/01/07 09:42:14;;;;;;;17.63;10.10;;;2.90;99.90;;;;;;5072624;28;20710;-72
2024/01/07 09:44:43;;;;;;;15.80;10.50;;;2.80;99.90;;;;;;5072330;28;20432;-71
2024/01/07 09:47:15;;;;;;;14.43;9.43;;;2.90;99.90;;;;;;5072743;28;20888;-71
2024/01/07 09:49:42;;;;;;;17.43;11.67;;;2.90;99.90;;;;;;5072555;28;20900;-71
2024/01/07 09:52:09;;;;;;;18.17;11.00;;;2.80;99.90;;;;;;4977396;28;2504104;-72
2024/01/07 09:54:39;;;;;;;14.30;9.00;;;2.90;99.90;;;;;;5040806;28;20222;-70
2024/01/07 09:57:07;;;;;;;18.43;9.30;;;3.00;99.90;;;;;;5046254;28;20798;-71
2024/01/07 09:59:34;;;;;;;21.57;10.17;;;3.10;99.90;;;;;;5058584;28;20460;-71
2024/01/07 10:02:00;;;;;;;17.30;11.07;;;3.10;99.90;;;;;;5052078;28;20481;-71
2024/01/07 10:04:30;;;;;;;15.27;9.40;;;3.10;99.90;;;;;;5061566;28;20944;-71
2024/01/07 10:06:56;;;;;;;11.20;8.10;;;3.20;99.90;;;;;;5073545;28;20411;-72
2024/01/07 10:09:23;;;;;;;15.90;9.67;;;3.30;99.90;;;;;;5073252;28;20427;-72
2024/01/07 10:11:49;;;;;;;16.97;9.83;;;3.30;99.90;;;;;;5073117;28;20470;-71
2024/01/07 10:14:15;;;;;;;15.07;8.73;;;3.20;99.90;;;;;;5072667;28;20455;-71
2024/01/07 10:16:40;;;;;;;12.63;8.40;;;3.20;99.90;;;;;;5073046;28;20495;-72
2024/01/07 10:19:07;;;;;;;13.40;8.93;;;3.20;99.90;;;;;;5072982;28;20852;-72
2024/01/07 10:21:33;;;;;;;13.77;8.20;;;3.20;99.90;;;;;;5072884;28;20249;-71
2024/01/07 10:24:10;;;;;;;9.60;8.13;;;3.30;99.90;;;;;;5071992;28;21115;-71
2024/01/07 10:26:37;;;;;;;10.50;6.67;;;3.30;99.90;;;;;;5072871;28;20647;-71
2024/01/07 10:29:02;;;;;;;10.60;6.60;;;3.20;99.90;;;;;;5072855;28;20415;-71
2024/01/07 10:31:29;;;;;;;11.10;8.00;;;3.20;99.90;;;;;;5072845;28;20491;-71
2024/01/07 10:33:56;;;;;;;10.43;7.50;;;3.30;99.90;;;;;;5072351;28;20181;-71
2024/01/07 10:36:22;;;;;;;8.83;5.90;;;3.40;99.90;;;;;;5072625;28;20487;-70
2024/01/07 10:38:48;;;;;;;10.97;5.87;;;3.40;99.90;;;;;;5072636;28;20975;-71
2024/01/07 10:41:16;;;;;;;9.43;6.83;;;3.30;99.90;;;;;;5072698;28;20422;-71
2024/01/07 10:43:46;;;;;;;7.00;6.17;;;3.20;99.90;;;;;;5072216;28;20277;-70
2024/01/07 10:46:13;;;;;;;11.50;7.90;;;3.20;99.90;;;;;;5072423;28;20432;-70
2024/01/07 10:48:46;;;;;;;9.53;8.07;;;3.20;99.90;;;;;;5072465;28;20446;-72
2024/01/07 10:51:14;;;;;;;11.23;7.73;;;3.20;99.90;;;;;;5032594;28;20410;-71
2024/01/07 10:53:43;;;;;;;12.00;7.43;;;3.20;99.90;;;;;;5034681;28;20465;-71
2024/01/07 10:56:12;;;;;;;11.50;7.10;;;3.10;99.90;;;;;;5051841;28;20945;-71
2024/01/07 10:58:40;;;;;;;11.40;7.53;;;3.10;99.90;;;;;;5052243;28;20421;-71
2024/01/07 11:01:07;;;;;;;12.00;6.80;;;3.10;99.90;;;;;;5054276;28;20457;-71
2024/01/07 11:03:45;;;;;;;12.80;7.57;;;3.10;99.90;;;;;;5051830;28;20464;-71
2024/01/07 11:06:39;;;;;;;15.00;8.37;;;3.10;99.90;;;;;;5070546;28;20428;-71
2024/01/07 11:09:20;;;;;;;13.03;9.60;;;3.20;99.90;;;;;;5071833;28;20425;-70
2024/01/07 11:11:46;;;;;;;10.97;7.30;;;3.10;99.90;;;;;;5072545;28;20404;-70
2024/01/07 11:14:42;;;;;;;14.80;9.27;;;3.00;99.90;;;;;;5064173;28;21096;-70
2024/01/07 11:17:07;;;;;;;14.43;8.80;;;3.10;99.90;;;;;;5072268;28;20175;-70
2024/01/07 11:19:35;;;;;;;13.03;9.70;;;3.00;99.90;;;;;;5070703;28;20789;-70
2024/01/07 11:22:29;;;;;;;12.77;8.67;;;3.00;99.90;;;;;;5071611;28;20297;-71
2024/01/07 11:24:56;;;;;;;16.90;9.50;;;3.00;99.90;;;;;;5070983;28;20439;-69
2024/01/07 11:27:22;;;;;;;13.40;8.37;;;3.10;99.90;;;;;;5055735;28;20418;-70
2024/01/07 11:30:07;;;;;;;11.30;8.03;;;3.10;99.90;;;;;;5045155;28;20425;-70
2024/01/07 11:32:34;;;;;;;13.77;9.17;;;3.10;99.90;;;;;;5051588;28;20487;-69
2024/01/07 11:35:01;;;;;;;14.90;11.10;;;3.20;99.90;;;;;;5051717;28;20417;-69
2024/01/07 11:37:26;;;;;;;11.00;9.10;;;3.30;99.90;;;;;;5051410;28;20440;-69
2024/01/07 11:39:55;;;;;;;13.37;8.40;;;3.50;99.90;;;;;;5052482;28;20413;-70
2024/01/07 11:42:22;;;;;;;14.83;9.40;;;3.60;99.90;;;;;;5051486;28;20822;-68
2024/01/07 11:44:48;;;;;;;10.17;8.77;;;3.70;99.90;;;;;;5057759;28;20428;-68
2024/01/07 11:47:15;;;;;;;9.20;8.03;;;3.60;99.90;;;;;;5070447;28;20474;-69
2024/01/07 11:49:41;;;;;;;9.33;8.33;;;3.70;99.90;;;;;;5072058;28;20447;-69
2024/01/07 11:52:08;;;;;;;8.83;6.90;;;3.60;99.90;;;;;;5063577;28;20878;-69
2024/01/07 11:54:33;;;;;;;9.50;7.37;;;3.60;99.90;;;;;;5040547;28;20572;-69
2024/01/07 11:56:59;;;;;;;25.07;16.97;;;3.60;99.90;;;;;;5051435;28;20410;-70
2024/01/07 11:59:24;;;;;;;8.50;7.57;;;3.60;99.90;;;;;;5047006;28;20183;-69
2024/01/07 12:01:50;;;;;;;15.97;8.90;;;3.50;99.90;;;;;;5051659;28;20204;-69
2024/01/07 12:04:16;;;;;;;9.50;6.50;;;3.50;99.90;;;;;;5052071;28;20553;-68
2024/01/07 12:06:41;;;;;;;12.37;8.10;;;3.50;99.90;;;;;;5058327;28;20414;-68
2024/01/07 12:09:07;;;;;;;11.90;7.77;;;3.50;99.90;;;;;;5051568;28;20264;-71
2024/01/07 12:11:33;;;;;;;8.77;6.67;;;3.50;99.90;;;;;;5071226;28;20213;-70
2024/01/07 12:13:59;;;;;;;11.70;8.10;;;3.40;99.90;;;;;;5071190;28;20566;-69
2024/01/07 12:16:25;;;;;;;23.00;13.80;;;3.30;99.90;;;;;;5071188;28;20870;-70
2024/01/07 12:18:51;;;;;;;9.43;7.37;;;3.40;99.90;;;;;;5071340;28;20474;-70
2024/01/07 12:21:23;;;;;;;10.07;8.20;;;3.40;99.90;;;;;;5071193;28;20170;-70
2024/01/07 12:23:52;;;;;;;7.13;5.53;;;3.30;99.90;;;;;;5071157;28;20737;-71
2024/01/07 12:26:23;;;;;;;12.40;7.00;;;3.20;99.90;;;;;;5071113;28;20410;-71
2024/01/07 12:28:54;;;;;;;13.47;6.67;;;3.20;99.90;;;;;;5071441;28;20412;-70
2024/01/07 12:31:19;;;;;;;8.60;5.93;;;3.30;99.90;;;;;;5071007;28;20408;-70
2024/01/07 12:33:46;;;;;;;9.80;6.73;;;3.20;99.90;;;;;;5049989;28;20959;-70
2024/01/07 12:36:12;;;;;;;12.53;7.07;;;3.10;99.90;;;;;;5066413;28;20232;-69